Pagrindinis puslapis
METAR-TAF:

METAR-TAF

Oro uostai :

Kelibia, Tunisas

platuma: 36-51N, ilguma: 011-05E, Aukštis: 29 m

Dabartinis oras

Ataskaita buvo paskelbta 51 minutes, ne 02:00 UTC
Vėjas 3 kt iš Pietvakarių, svyruoja nuo Pietų/Pietryčių ir Vakarų/Šiaurės Vakarų
Temperatūra 12°C
Drėgmė 88%
Slėgis 1028 hPa

METAR: DTTL 180200Z AUTO 23003KT 160V300 NCD 12/10 Q1028

Laikas: 03:51 (02:51 UTC)


TAF: trūkstamas

Orai ataskaitas ir orų prognozės (METAR, TAF).

turimą stotys yra geltonos ir raudonos taškus žemėlapyje.

Perkelti pele per norėdami pamatyti stoties vardą.

Tada spustelėkite, norėdami matyti oro stebėjimo ir prognozės.

Norėdami pakeisti žemėlapį: spustelėkite ant žalios mygtukų su juodo kryžiaus žemyn,; žalią mygtuką su brūkšneliu, jei norite nutolinti; arba žalių rodyklių gretimoms žemėlapius.


METAR-TAF: